Time;durP1;ratioP1;P1;durP2;ratioP2;P2;SDS_P1;SDS_P2;PMS_P1;PMS_P2;Temp;Humidity;BMP_temperature;BMP_pressure;BME280_temperature;BME280_humidity;BME280_pressure;Samples;Min_cycle;Max_cycle;Signal;HPM_P1;HPM_P2
2024/01/01 00:02:21;;;;;;;14.10;7.20;;;7.40;99.90;;;;;;4988610;28;20038;-85
2024/01/01 00:04:46;;;;;;;13.52;6.63;;;7.50;99.90;;;;;;4971487;28;20072;-85
2024/01/01 00:07:12;;;;;;;14.60;6.97;;;7.40;99.90;;;;;;4972564;28;20073;-85
2024/01/01 00:09:37;;;;;;;14.27;6.18;;;8.20;99.90;;;;;;4972588;28;20045;-85
2024/01/01 00:12:04;;;;;;;15.52;6.93;;;7.50;99.90;;;;;;4971664;28;20041;-85
2024/01/01 00:14:29;;;;;;;15.45;6.80;;;7.40;99.90;;;;;;4971930;28;20050;-85
2024/01/01 00:16:55;;;;;;;16.67;7.35;;;7.40;99.90;;;;;;4968145;28;20527;-85
2024/01/01 00:19:22;;;;;;;17.30;8.02;;;7.30;99.90;;;;;;4968947;28;20104;-85
2024/01/01 00:21:47;;;;;;;15.07;8.45;;;7.30;99.90;;;;;;4987497;28;20483;-86
2024/01/01 00:24:13;;;;;;;17.25;9.45;;;7.50;99.90;;;;;;4988892;28;20518;-86
2024/01/01 00:26:39;;;;;;;18.60;10.55;;;7.30;99.90;;;;;;4983526;28;20521;-86
2024/01/01 00:29:05;;;;;;;23.40;12.40;;;8.60;99.90;;;;;;4980351;28;20042;-86
2024/01/01 00:31:31;;;;;;;18.50;12.02;;;8.10;99.90;;;;;;4992010;28;20111;-85
2024/01/01 00:33:57;;;;;;;21.10;13.40;;;7.70;99.90;;;;;;4989976;28;20045;-85
2024/01/01 00:36:22;;;;;;;23.50;13.45;;;7.50;99.90;;;;;;4987424;28;20033;-86
2024/01/01 00:38:50;;;;;;;24.60;14.65;;;7.30;99.90;;;;;;5004894;28;20059;-85
2024/01/01 00:41:16;;;;;;;23.75;14.75;;;8.20;99.90;;;;;;4991955;28;20447;-86
2024/01/01 00:43:43;;;;;;;25.67;15.15;;;7.60;99.90;;;;;;5005550;28;20053;-86
2024/01/01 00:46:09;;;;;;;26.45;16.25;;;7.50;99.90;;;;;;5007684;28;20518;-86
2024/01/01 00:48:35;;;;;;;25.38;15.65;;;8.10;99.90;;;;;;5005972;28;20049;-85
2024/01/01 00:51:01;;;;;;;27.48;16.20;;;8.00;99.90;;;;;;5008046;28;20037;-85
2024/01/01 00:53:27;;;;;;;25.40;15.68;;;7.50;99.90;;;;;;4974349;28;20041;-86
2024/01/01 00:55:52;;;;;;;26.38;15.45;;;7.50;99.90;;;;;;5007345;28;20073;-85
2024/01/01 00:58:18;;;;;;;26.70;16.40;;;7.50;99.90;;;;;;4989776;28;20076;-86
2024/01/01 01:00:44;;;;;;;24.08;16.08;;;8.10;99.90;;;;;;5007610;28;20061;-85
2024/01/01 01:03:10;;;;;;;24.77;15.57;;;7.40;99.90;;;;;;4988158;28;20033;-86
2024/01/01 01:05:36;;;;;;;24.58;15.75;;;7.50;99.90;;;;;;5007517;28;20037;-85
2024/01/01 01:08:01;;;;;;;24.80;15.65;;;7.30;99.90;;;;;;5005245;28;20036;-86
2024/01/01 01:10:27;;;;;;;25.92;15.18;;;7.50;99.90;;;;;;4987529;28;20041;-86
2024/01/01 01:12:55;;;;;;;25.00;14.82;;;7.40;99.90;;;;;;4989471;28;20104;-86
2024/01/01 01:15:26;;;;;;;22.48;14.30;;;8.40;99.90;;;;;;4991182;28;20128;-86
2024/01/01 01:17:51;;;;;;;25.08;14.23;;;7.40;99.90;;;;;;5023151;28;20045;-85
2024/01/01 01:20:18;;;;;;;25.95;15.07;;;7.50;99.90;;;;;;4987524;28;20553;-86
2024/01/01 01:22:44;;;;;;;26.92;15.70;;;7.40;99.90;;;;;;5005651;28;20037;-86
2024/01/01 01:25:12;;;;;;;25.83;15.00;;;8.50;99.90;;;;;;5004886;28;20042;-86
2024/01/01 01:27:40;;;;;;;28.05;15.65;;;7.50;99.90;;;;;;4990618;28;20576;-86
2024/01/01 01:30:06;;;;;;;24.35;15.07;;;7.70;99.90;;;;;;5005941;28;20050;-86
2024/01/01 01:32:32;;;;;;;24.50;14.13;;;7.40;99.90;;;;;;4986265;28;20045;-86
2024/01/01 01:34:57;;;;;;;21.58;12.68;;;7.30;99.90;;;;;;4989235;28;20038;-85
2024/01/01 01:37:23;;;;;;;20.77;12.23;;;7.40;99.90;;;;;;5006178;28;20220;-86
2024/01/01 01:39:49;;;;;;;20.52;12.18;;;7.40;99.90;;;;;;4990529;28;20041;-86
2024/01/01 01:42:14;;;;;;;20.15;11.55;;;7.50;99.90;;;;;;4988783;28;20055;-86
2024/01/01 01:44:40;;;;;;;18.33;10.70;;;7.60;99.90;;;;;;5024486;28;20087;-86
2024/01/01 01:47:07;;;;;;;21.48;10.95;;;7.50;99.90;;;;;;4989776;28;20046;-86
2024/01/01 01:49:33;;;;;;;19.00;11.27;;;8.30;99.90;;;;;;4991572;28;20038;-85
2024/01/01 01:52:04;;;;;;;19.05;10.88;;;7.80;99.90;;;;;;5021748;28;20038;-86
2024/01/01 01:54:33;;;;;;;20.15;11.05;;;7.70;99.90;;;;;;5008421;28;20147;-86
2024/01/01 01:56:59;;;;;;;21.00;10.95;;;8.40;99.90;;;;;;5025911;28;20041;-85
2024/01/01 01:59:26;;;;;;;22.85;12.05;;;7.60;99.90;;;;;;4997517;28;20038;-86
2024/01/01 02:01:51;;;;;;;20.55;11.85;;;7.70;99.90;;;;;;5005237;28;20122;-85
2024/01/01 02:04:17;;;;;;;24.08;12.23;;;7.70;99.90;;;;;;4977442;28;20113;-86
2024/01/01 02:06:45;;;;;;;19.80;11.20;;;7.80;99.90;;;;;;5009171;28;20041;-85
2024/01/01 02:09:11;;;;;;;20.50;12.10;;;7.70;99.90;;;;;;4978800;28;20418;-86
2024/01/01 02:11:36;;;;;;;18.80;10.52;;;7.80;99.90;;;;;;4990871;28;20041;-86
2024/01/01 02:14:14;;;;;;;18.02;10.48;;;7.70;99.90;;;;;;4976138;28;20037;-86
2024/01/01 02:16:40;;;;;;;19.98;10.43;;;7.70;99.90;;;;;;5007224;28;20207;-86
2024/01/01 02:19:32;;;;;;;19.83;11.25;;;7.80;99.90;;;;;;5026737;28;20129;-85
2024/01/01 02:21:58;;;;;;;18.77;11.13;;;7.70;99.90;;;;;;4992412;28;20080;-85
2024/01/01 02:24:23;;;;;;;24.10;13.35;;;7.70;99.90;;;;;;4990972;28;20470;-86
2024/01/01 02:26:50;;;;;;;20.95;12.00;;;7.80;99.90;;;;;;4992990;28;20050;-85
2024/01/01 02:29:16;;;;;;;21.35;13.07;;;7.80;99.90;;;;;;5010259;28;20068;-86
2024/01/01 02:31:42;;;;;;;23.15;13.75;;;;;;;;;;5010261;28;20120;-86
2024/01/01 02:34:08;;;;;;;20.55;12.40;;;7.80;99.90;;;;;;5025568;28;20037;-86
2024/01/01 02:36:41;;;;;;;18.65;11.60;;;7.80;99.90;;;;;;5010224;28;20045;-86
2024/01/01 02:39:07;;;;;;;16.88;10.50;;;7.80;99.90;;;;;;5023829;28;20037;-85
2024/01/01 02:41:34;;;;;;;19.65;11.20;;;7.80;99.90;;;;;;5025673;28;20088;-85
2024/01/01 02:44:00;;;;;;;19.58;12.02;;;7.80;99.90;;;;;;4990968;28;20038;-86
2024/01/01 02:46:26;;;;;;;19.15;11.52;;;9.00;99.90;;;;;;5009223;28;20072;-85
2024/01/01 02:48:52;;;;;;;19.08;11.73;;;7.80;99.90;;;;;;5009400;28;20037;-85
2024/01/01 02:51:18;;;;;;;17.70;10.75;;;7.80;99.90;;;;;;4992185;28;20037;-85
2024/01/01 02:53:44;;;;;;;19.08;10.73;;;7.70;99.90;;;;;;5005897;28;20100;-85
2024/01/01 02:56:21;;;;;;;19.45;10.30;;;7.70;99.90;;;;;;5007714;28;20048;-85
2024/01/01 02:58:47;;;;;;;20.38;11.23;;;7.70;99.90;;;;;;5025506;28;20545;-85
2024/01/01 03:01:13;;;;;;;19.45;10.13;;;7.70;99.90;;;;;;4992811;28;20483;-85
2024/01/01 03:03:39;;;;;;;19.20;10.32;;;7.60;99.90;;;;;;5002634;28;20125;-85
2024/01/01 03:06:08;;;;;;;15.68;8.40;;;8.30;99.90;;;;;;4986741;28;20458;-85
2024/01/01 03:08:38;;;;;;;15.13;8.55;;;7.70;99.90;;;;;;4992975;28;20065;-88
2024/01/01 03:11:07;;;;;;;16.15;9.02;;;7.70;99.90;;;;;;5007971;28;20120;-85
2024/01/01 03:13:33;;;;;;;13.60;7.45;;;7.50;99.90;;;;;;5026088;28;20044;-85
2024/01/01 03:15:59;;;;;;;13.05;7.05;;;7.50;99.90;;;;;;5001537;28;20041;-85
2024/01/01 03:18:25;;;;;;;13.93;6.72;;;8.40;99.90;;;;;;5009309;28;20045;-85
2024/01/01 03:20:51;;;;;;;13.75;7.05;;;7.30;99.90;;;;;;5007447;28;20533;-85
2024/01/01 03:23:17;;;;;;;11.82;6.53;;;8.00;99.90;;;;;;5009491;28;20038;-85
2024/01/01 03:25:43;;;;;;;12.23;6.28;;;7.30;99.90;;;;;;5024686;28;20041;-85
2024/01/01 03:28:08;;;;;;;14.32;7.03;;;7.20;99.90;;;;;;5022679;28;20583;-85
2024/01/01 03:30:34;;;;;;;12.38;6.63;;;7.20;99.90;;;;;;4991286;28;20044;-85
2024/01/01 03:32:59;;;;;;;11.93;6.28;;;7.20;99.90;;;;;;4974824;28;20096;-85
2024/01/01 03:35:25;;;;;;;12.90;5.75;;;7.90;99.90;;;;;;5008634;28;20033;-85
2024/01/01 03:37:51;;;;;;;12.60;6.13;;;7.50;99.90;;;;;;4975006;28;20034;-85
2024/01/01 03:40:17;;;;;;;13.50;6.13;;;7.30;99.90;;;;;;4988134;28;20503;-85
2024/01/01 03:42:43;;;;;;;12.85;5.95;;;7.10;99.90;;;;;;4991060;28;20103;-85
2024/01/01 03:45:09;;;;;;;12.60;5.90;;;7.80;99.90;;;;;;4991880;28;20442;-85
2024/01/01 03:47:35;;;;;;;14.25;6.70;;;7.10;99.90;;;;;;4992557;28;20395;-85
2024/01/01 03:50:00;;;;;;;11.95;5.95;;;7.40;99.90;;;;;;4990301;28;20037;-85
2024/01/01 03:52:26;;;;;;;12.07;6.00;;;7.00;99.90;;;;;;4992714;28;20120;-84
2024/01/01 03:54:52;;;;;;;13.07;6.05;;;7.00;99.90;;;;;;4991879;28;20049;-84
2024/01/01 03:57:17;;;;;;;13.45;5.90;;;7.20;99.90;;;;;;4992216;28;20145;-84
2024/01/01 03:59:43;;;;;;;11.20;5.55;;;8.20;99.90;;;;;;5023691;28;20038;-84
2024/01/01 04:02:10;;;;;;;14.93;5.10;;;7.00;99.90;;;;;;4986727;28;20127;-84
2024/01/01 04:04:37;;;;;;;11.23;4.65;;;7.00;99.90;;;;;;5024377;28;20037;-85
2024/01/01 04:07:03;;;;;;;10.85;4.57;;;7.00;99.90;;;;;;4989600;28;20045;-85
2024/01/01 04:09:28;;;;;;;10.13;4.30;;;7.10;99.90;;;;;;4989254;28;20091;-85
2024/01/01 04:11:54;;;;;;;11.38;4.68;;;6.90;99.90;;;;;;4989624;28;20121;-84
2024/01/01 04:14:20;;;;;;;9.70;3.83;;;7.10;99.90;;;;;;5008443;28;20057;-86
2024/01/01 04:16:45;;;;;;;9.95;3.67;;;8.30;99.90;;;;;;4975628;28;20058;-85
2024/01/01 04:19:11;;;;;;;10.27;4.00;;;7.00;99.90;;;;;;4991246;28;20208;-85
2024/01/01 04:21:40;;;;;;;8.90;3.70;;;6.90;99.90;;;;;;4989300;28;20117;-85
2024/01/01 04:24:07;;;;;;;12.18;3.83;;;7.70;99.90;;;;;;5023640;28;20126;-85
2024/01/01 04:26:32;;;;;;;10.77;4.03;;;6.90;99.90;;;;;;4990508;28;20048;-85
2024/01/01 04:28:58;;;;;;;11.98;4.35;;;8.00;99.90;;;;;;4988441;28;20433;-85
2024/01/01 04:31:24;;;;;;;13.65;4.30;;;7.10;99.90;;;;;;4990408;28;20042;-85
2024/01/01 04:33:49;;;;;;;10.93;4.15;;;7.10;99.90;;;;;;4989515;28;20483;-86
2024/01/01 04:36:15;;;;;;;13.50;4.28;;;7.80;99.90;;;;;;5008175;28;20045;-85
2024/01/01 04:38:41;;;;;;;10.75;3.97;;;6.90;99.90;;;;;;5007679;28;20400;-86
2024/01/01 04:41:09;;;;;;;8.48;3.50;;;7.50;99.90;;;;;;4990190;28;20038;-85
2024/01/01 04:43:35;;;;;;;10.55;3.72;;;7.20;99.90;;;;;;4990049;28;20390;-86
2024/01/01 04:46:01;;;;;;;8.95;3.42;;;7.10;99.90;;;;;;5007818;28;20644;-86
2024/01/01 04:48:27;;;;;;;9.65;3.50;;;7.80;99.90;;;;;;4989900;28;20040;-86
2024/01/01 04:50:52;;;;;;;9.30;3.33;;;6.80;99.90;;;;;;4991769;28;20080;-85
2024/01/01 04:53:18;;;;;;;9.50;3.00;;;6.90;99.90;;;;;;5004800;28;20049;-85
2024/01/01 04:55:44;;;;;;;11.10;3.70;;;7.00;99.90;;;;;;4969271;28;20085;-86
2024/01/01 04:58:09;;;;;;;11.48;3.53;;;6.80;99.90;;;;;;5005332;28;20045;-86
2024/01/01 05:00:35;;;;;;;10.45;3.20;;;8.10;99.90;;;;;;5006927;28;20042;-85
2024/01/01 05:03:00;;;;;;;9.50;3.22;;;6.90;99.90;;;;;;4991487;28;20042;-86
2024/01/01 05:05:26;;;;;;;7.85;2.80;;;7.60;99.90;;;;;;5007460;28;20044;-85
2024/01/01 05:07:53;;;;;;;10.98;2.90;;;6.80;99.90;;;;;;4988372;28;20220;-85
2024/01/01 05:10:19;;;;;;;10.00;2.85;;;6.90;99.90;;;;;;4990734;28;20041;-85
2024/01/01 05:12:44;;;;;;;10.65;3.10;;;7.10;99.90;;;;;;4991649;28;20049;-86
2024/01/01 05:15:13;;;;;;;12.02;3.15;;;7.60;99.90;;;;;;4990275;28;20487;-85
2024/01/01 05:17:39;;;;;;;10.65;3.08;;;7.00;99.90;;;;;;4971040;28;20049;-85
2024/01/01 05:20:05;;;;;;;8.50;2.33;;;6.80;99.90;;;;;;5006759;28;20041;-85
2024/01/01 05:22:31;;;;;;;8.57;2.50;;;6.90;99.90;;;;;;4991659;28;20281;-85
2024/01/01 05:24:57;;;;;;;8.50;2.53;;;7.30;99.90;;;;;;5007368;28;20109;-85
2024/01/01 05:27:23;;;;;;;9.35;2.60;;;7.50;99.90;;;;;;5020997;28;20411;-85
2024/01/01 05:29:48;;;;;;;9.98;2.90;;;6.90;99.90;;;;;;4992001;28;20033;-85
2024/01/01 05:32:14;;;;;;;8.00;2.40;;;7.60;99.90;;;;;;4986269;28;20036;-86
2024/01/01 05:34:41;;;;;;;9.93;2.53;;;7.80;99.90;;;;;;5008865;28;20061;-85
2024/01/01 05:37:07;;;;;;;7.43;2.30;;;7.70;99.90;;;;;;4993967;28;20041;-85
2024/01/01 05:39:33;;;;;;;8.68;2.40;;;6.70;99.90;;;;;;5008787;28;20064;-85
2024/01/01 05:41:59;;;;;;;9.10;3.03;;;7.80;99.90;;;;;;5009454;28;20037;-85
2024/01/01 05:44:25;;;;;;;9.25;2.45;;;7.50;99.90;;;;;;4993224;28;20088;-85
2024/01/01 05:46:51;;;;;;;7.80;2.30;;;6.80;99.90;;;;;;5009165;28;20640;-85
2024/01/01 05:49:19;;;;;;;8.80;2.38;;;6.90;99.90;;;;;;4991603;28;20562;-85
2024/01/01 05:51:45;;;;;;;7.82;2.30;;;7.10;99.90;;;;;;5026421;28;20491;-86
2024/01/01 05:54:11;;;;;;;9.52;2.60;;;7.70;99.90;;;;;;4976921;28;20121;-86
2024/01/01 05:56:37;;;;;;;7.75;2.38;;;6.70;99.90;;;;;;5010349;28;20044;-85
2024/01/01 05:59:03;;;;;;;7.63;2.10;;;6.90;99.90;;;;;;5056317;28;20038;-86
2024/01/01 06:01:28;;;;;;;7.75;2.28;;;7.00;99.90;;;;;;5008543;28;20040;-85
2024/01/01 06:03:54;;;;;;;9.63;2.20;;;7.80;99.90;;;;;;5008769;28;20279;-85
2024/01/01 06:06:24;;;;;;;7.95;2.40;;;6.80;99.90;;;;;;4993099;28;20045;-86
2024/01/01 06:08:49;;;;;;;8.18;2.30;;;7.10;99.90;;;;;;5009987;28;20094;-86
2024/01/01 06:11:16;;;;;;;7.75;2.15;;;8.20;99.90;;;;;;5007592;28;20045;-86
2024/01/01 06:13:42;;;;;;;7.53;2.55;;;7.00;99.90;;;;;;5011137;28;20038;-86
2024/01/01 06:16:08;;;;;;;6.57;2.13;;;7.60;99.90;;;;;;4977172;28;20267;-85
2024/01/01 06:18:33;;;;;;;9.48;2.40;;;7.90;99.90;;;;;;4991570;28;20292;-85
2024/01/01 06:20:59;;;;;;;7.68;2.22;;;6.80;99.90;;;;;;4992720;28;20076;-86
2024/01/01 06:23:25;;;;;;;9.60;2.35;;;7.90;99.90;;;;;;5009684;28;20044;-86
2024/01/01 06:25:52;;;;;;;9.85;2.72;;;7.10;99.90;;;;;;4991204;28;20124;-86
2024/01/01 06:28:18;;;;;;;6.85;2.03;;;7.40;99.90;;;;;;5010589;28;20189;-85
2024/01/01 06:30:44;;;;;;;8.20;2.20;;;7.30;99.90;;;;;;5007337;28;20099;-86
2024/01/01 06:33:10;;;;;;;8.90;2.60;;;7.00;99.90;;;;;;4975799;28;20502;-86
2024/01/01 06:35:36;;;;;;;8.60;2.40;;;7.00;99.90;;;;;;4992560;28;20037;-86
2024/01/01 06:38:02;;;;;;;6.53;2.08;;;8.00;99.90;;;;;;4989483;28;20040;-85
2024/01/01 06:40:28;;;;;;;7.90;2.30;;;7.00;99.90;;;;;;4991667;28;20478;-86
2024/01/01 06:42:54;;;;;;;7.72;2.17;;;6.90;99.90;;;;;;5008668;28;20050;-85
2024/01/01 06:45:20;;;;;;;7.95;2.03;;;7.20;99.90;;;;;;4993065;28;20761;-85
2024/01/01 06:47:45;;;;;;;9.43;2.30;;;7.10;99.90;;;;;;5026357;28;20042;-85
2024/01/01 06:50:11;;;;;;;6.55;2.05;;;7.90;99.90;;;;;;5009466;28;20056;-85
2024/01/01 06:52:37;;;;;;;10.45;2.40;;;8.20;99.90;;;;;;4991880;28;20072;-85
2024/01/01 06:55:03;;;;;;;8.65;2.55;;;7.30;99.90;;;;;;4991163;28;20041;-85
2024/01/01 06:57:29;;;;;;;12.05;2.58;;;7.10;99.90;;;;;;5009001;28;20045;-85
2024/01/01 06:59:55;;;;;;;11.38;2.88;;;8.50;99.90;;;;;;5001648;28;20029;-85
2024/01/01 07:02:22;;;;;;;11.27;2.72;;;7.20;99.90;;;;;;4990811;28;20087;-85
2024/01/01 07:04:48;;;;;;;9.75;2.60;;;;;;;;;;4993230;28;20164;-85
2024/01/01 07:07:14;;;;;;;9.02;2.80;;;6.90;99.90;;;;;;4993275;28;20511;-85
2024/01/01 07:09:40;;;;;;;8.65;2.53;;;7.20;99.90;;;;;;5008531;28;20119;-85
2024/01/01 07:12:27;;;;;;;9.60;2.30;;;7.50;99.90;;;;;;4991783;28;20132;-85
2024/01/01 07:14:54;;;;;;;8.07;2.20;;;7.80;99.90;;;;;;5025384;28;20045;-85
2024/01/01 07:17:20;;;;;;;12.27;2.47;;;7.70;99.90;;;;;;5008620;28;20074;-85
2024/01/01 07:19:46;;;;;;;7.53;2.10;;;7.90;99.90;;;;;;5009137;28;20575;-85
2024/01/01 07:22:13;;;;;;;8.90;2.40;;;7.40;99.90;;;;;;5023732;28;20041;-85
2024/01/01 07:24:39;;;;;;;8.52;2.33;;;7.00;99.90;;;;;;5006934;28;20290;-85
2024/01/01 07:27:05;;;;;;;9.32;2.35;;;6.90;99.90;;;;;;5006488;28;20053;-85
2024/01/01 07:29:31;;;;;;;8.73;2.38;;;8.00;99.90;;;;;;4988963;28;20037;-85
2024/01/01 07:31:57;;;;;;;8.48;2.28;;;7.20;99.90;;;;;;5008484;28;20037;-85
2024/01/01 07:34:24;;;;;;;9.18;2.22;;;7.40;99.90;;;;;;5007576;28;20045;-86
2024/01/01 07:36:51;;;;;;;7.70;2.35;;;7.70;99.90;;;;;;4993046;28;20103;-85
2024/01/01 07:39:19;;;;;;;8.02;2.28;;;8.10;99.90;;;;;;4989139;28;20292;-85
2024/01/01 07:41:48;;;;;;;9.35;2.50;;;7.20;99.90;;;;;;4991279;28;20537;-85
2024/01/01 07:44:14;;;;;;;9.82;2.65;;;7.30;99.90;;;;;;5007950;28;20037;-85
2024/01/01 07:46:41;;;;;;;9.77;2.35;;;7.20;99.90;;;;;;5006121;28;20124;-85
2024/01/01 07:49:07;;;;;;;11.05;2.92;;;7.20;99.90;;;;;;4991650;28;20037;-85
2024/01/01 07:51:34;;;;;;;7.90;2.10;;;7.90;99.90;;;;;;4976949;28;20538;-85
2024/01/01 07:54:00;;;;;;;4.82;1.75;;;7.20;99.90;;;;;;5035618;28;20132;-85
2024/01/01 07:56:26;;;;;;;4.28;1.50;;;7.00;99.90;;;;;;4985994;28;20120;-85
2024/01/01 07:58:53;;;;;;;5.90;1.83;;;6.80;99.90;;;;;;4988205;28;20053;-84
2024/01/01 08:01:19;;;;;;;4.75;1.45;;;7.70;99.90;;;;;;4987206;28;20048;-85
2024/01/01 08:03:45;;;;;;;4.03;1.30;;;7.40;99.90;;;;;;4999786;28;20039;-85
2024/01/01 08:06:11;;;;;;;4.30;1.42;;;6.60;99.90;;;;;;4988971;28;20045;-85
2024/01/01 08:08:37;;;;;;;3.28;1.30;;;6.70;99.90;;;;;;4988339;28;20104;-85
2024/01/01 08:11:02;;;;;;;3.92;1.48;;;6.60;99.90;;;;;;5005217;28;20045;-84
2024/01/01 08:13:28;;;;;;;3.85;1.30;;;6.50;99.90;;;;;;5006070;28;20044;-86
2024/01/01 08:15:54;;;;;;;3.45;1.30;;;6.40;99.90;;;;;;5005342;28;20112;-85
2024/01/01 08:18:20;;;;;;;3.20;1.13;;;7.20;99.90;;;;;;5004265;28;20049;-84
2024/01/01 08:20:45;;;;;;;3.67;1.45;;;6.30;99.90;;;;;;5006971;28;20053;-85
2024/01/01 08:23:12;;;;;;;2.83;1.30;;;6.40;99.90;;;;;;4988161;28;20041;-84
2024/01/01 08:25:39;;;;;;;3.38;1.33;;;6.70;99.90;;;;;;4987460;28;20034;-84
2024/01/01 08:28:05;;;;;;;4.60;1.30;;;6.50;99.90;;;;;;5008689;28;20099;-84
2024/01/01 08:30:31;;;;;;;3.65;1.48;;;6.40;99.90;;;;;;4984076;28;20403;-84
2024/01/01 08:32:58;;;;;;;5.40;1.50;;;6.40;99.90;;;;;;4999439;28;20041;-84
2024/01/01 08:35:24;;;;;;;5.07;1.58;;;7.50;99.90;;;;;;5016375;28;20037;-84
2024/01/01 08:37:49;;;;;;;6.25;1.60;;;6.50;99.90;;;;;;5003435;28;20494;-84
2024/01/01 08:40:16;;;;;;;6.65;1.70;;;6.60;99.90;;;;;;4973401;28;20041;-84
2024/01/01 08:42:41;;;;;;;6.25;1.63;;;6.50;99.90;;;;;;5006750;28;20084;-84
2024/01/01 08:45:09;;;;;;;5.20;1.60;;;6.80;99.90;;;;;;4985127;28;20475;-84
2024/01/01 08:47:34;;;;;;;4.35;1.63;;;6.70;99.90;;;;;;5006875;28;20041;-84
2024/01/01 08:50:00;;;;;;;6.90;1.75;;;7.30;99.90;;;;;;5000832;28;20512;-84
2024/01/01 08:52:26;;;;;;;5.47;1.60;;;7.20;99.90;;;;;;4974599;28;20033;-84
2024/01/01 08:54:52;;;;;;;6.03;1.77;;;6.70;99.90;;;;;;5007801;28;20041;-84
2024/01/01 08:57:17;;;;;;;5.57;2.00;;;6.70;99.90;;;;;;5003210;28;20033;-84
2024/01/01 08:59:43;;;;;;;6.03;1.70;;;6.60;99.90;;;;;;5005228;28;20037;-84
2024/01/01 09:02:09;;;;;;;6.75;1.75;;;7.50;99.90;;;;;;4989582;28;20168;-84
2024/01/01 09:04:35;;;;;;;7.57;1.70;;;6.70;99.90;;;;;;5004830;28;20045;-83
2024/01/01 09:07:02;;;;;;;6.43;1.92;;;7.00;99.90;;;;;;4966758;28;20037;-83
2024/01/01 09:09:29;;;;;;;5.40;1.60;;;7.60;99.90;;;;;;5022383;28;20400;-84
2024/01/01 09:11:55;;;;;;;6.10;1.70;;;7.70;99.90;;;;;;4987035;28;21100;-84
2024/01/01 09:14:21;;;;;;;6.13;1.75;;;6.70;99.90;;;;;;4985575;28;20048;-83
2024/01/01 09:16:47;;;;;;;6.18;1.63;;;6.80;99.90;;;;;;5001194;28;20033;-83
2024/01/01 09:19:15;;;;;;;7.00;1.80;;;6.60;99.90;;;;;;5005139;28;20041;-84
2024/01/01 09:21:41;;;;;;;6.35;1.80;;;6.90;99.90;;;;;;5004839;28;20037;-84
2024/01/01 09:24:09;;;;;;;4.93;1.80;;;6.60;99.90;;;;;;4990257;28;20044;-85
2024/01/01 09:26:36;;;;;;;3.97;1.35;;;6.80;99.90;;;;;;4994223;28;20574;-85
2024/01/01 09:29:02;;;;;;;4.68;1.50;;;7.00;99.90;;;;;;5028319;28;20509;-84
2024/01/01 09:31:27;;;;;;;3.28;1.50;;;6.70;99.90;;;;;;4993479;28;20041;-85
2024/01/01 09:34:00;;;;;;;3.42;1.30;;;6.60;99.90;;;;;;5019691;28;20041;-85
2024/01/01 09:36:29;;;;;;;4.45;1.35;;;7.10;99.90;;;;;;5008099;28;20436;-85
2024/01/01 09:38:55;;;;;;;4.35;1.85;;;6.60;99.90;;;;;;4991821;28;20517;-84
2024/01/01 09:41:24;;;;;;;3.72;1.30;;;6.40;99.90;;;;;;5007336;28;20038;-84
2024/01/01 09:43:50;;;;;;;3.00;1.30;;;6.50;99.90;;;;;;4994278;28;20046;-85
2024/01/01 09:46:17;;;;;;;5.30;1.50;;;6.60;99.90;;;;;;5004131;28;20033;-85
2024/01/01 09:48:46;;;;;;;3.33;1.35;;;6.40;99.90;;;;;;4987181;28;20045;-85
2024/01/01 09:51:13;;;;;;;4.57;1.40;;;6.30;99.90;;;;;;5006423;28;20049;-84
2024/01/01 09:53:39;;;;;;;2.58;1.25;;;7.50;99.90;;;;;;4993390;28;20048;-84
2024/01/01 09:56:05;;;;;;;4.80;1.52;;;6.50;99.90;;;;;;5010518;28;20046;-84
2024/01/01 09:58:44;;;;;;;5.35;1.60;;;6.30;99.90;;;;;;4978656;28;20048;-85
2024/01/01 10:01:14;;;;;;;4.32;1.50;;;6.40;99.90;;;;;;5022749;28;20049;-84
2024/01/01 10:03:40;;;;;;;3.45;1.30;;;6.60;99.90;;;;;;5006689;28;20490;-85
2024/01/01 10:06:08;;;;;;;4.95;1.60;;;6.50;99.90;;;;;;4993366;28;20037;-85
2024/01/01 10:08:34;;;;;;;4.85;1.50;;;6.60;99.90;;;;;;5005603;28;20049;-84
2024/01/01 10:11:16;;;;;;;5.68;1.40;;;6.80;99.90;;;;;;4994645;28;20045;-84
2024/01/01 10:13:42;;;;;;;4.68;1.48;;;7.50;99.90;;;;;;5018594;28;20048;-85
2024/01/01 10:16:08;;;;;;;5.88;1.60;;;7.60;99.90;;;;;;5010042;28;20903;-84
2024/01/01 10:18:34;;;;;;;6.13;1.50;;;6.80;99.90;;;;;;5011869;28;20054;-85
2024/01/01 10:21:11;;;;;;;6.10;1.67;;;6.80;99.90;;;;;;5026021;28;20041;-83
2024/01/01 10:23:37;;;;;;;5.47;1.60;;;6.70;99.90;;;;;;4976856;28;20045;-83
2024/01/01 10:26:05;;;;;;;8.35;2.20;;;6.60;99.90;;;;;;5025832;28;20037;-84
2024/01/01 10:28:32;;;;;;;5.35;1.88;;;6.90;99.90;;;;;;5018799;28;20049;-85
2024/01/01 10:31:01;;;;;;;8.77;1.88;;;7.30;99.90;;;;;;5014473;28;20502;-85
2024/01/01 10:33:32;;;;;;;6.82;2.15;;;7.10;99.90;;;;;;4998622;28;20637;-84
2024/01/01 10:36:02;;;;;;;7.45;2.08;;;7.00;99.90;;;;;;4993850;28;20037;-82
2024/01/01 10:38:29;;;;;;;8.15;2.22;;;6.80;99.90;;;;;;5011681;28;20561;-84
2024/01/01 10:40:56;;;;;;;6.57;1.80;;;8.10;99.90;;;;;;4990679;28;20045;-84
2024/01/01 10:43:25;;;;;;;8.55;2.05;;;6.90;99.90;;;;;;5020289;28;20118;-84
2024/01/01 10:45:54;;;;;;;9.82;1.90;;;6.90;99.90;;;;;;5019934;28;20045;-84
2024/01/01 10:48:22;;;;;;;9.10;1.98;;;7.10;99.90;;;;;;5048362;28;20042;-85
2024/01/01 10:51:17;;;;;;;10.32;1.98;;;8.30;99.90;;;;;;4989162;28;20502;-85
2024/01/01 10:53:53;;;;;;;8.75;2.25;;;7.10;99.90;;;;;;5020535;28;20081;-85
2024/01/01 10:56:52;;;;;;;11.10;2.40;;;8.00;99.90;;;;;;5010446;28;20033;-85
2024/01/01 10:59:20;;;;;;;8.40;1.95;;;7.20;99.90;;;;;;5004125;28;20049;-84
2024/01/01 11:01:49;;;;;;;10.38;2.30;;;7.20;99.90;;;;;;5006555;28;20047;-84
2024/01/01 11:04:18;;;;;;;9.07;2.45;;;7.40;99.90;;;;;;5001839;28;20497;-84
2024/01/01 11:06:44;;;;;;;9.68;2.30;;;8.40;99.90;;;;;;4997496;28;20038;-84
2024/01/01 11:09:19;;;;;;;10.23;2.47;;;7.60;99.90;;;;;;5008159;28;20080;-84
2024/01/01 11:11:55;;;;;;;13.13;2.47;;;7.50;99.90;;;;;;5010574;28;20104;-84
2024/01/01 11:14:44;;;;;;;11.45;2.10;;;7.50;99.90;;;;;;5013660;28;20076;-84
2024/01/01 11:17:11;;;;;;;10.90;2.42;;;7.70;99.90;;;;;;5030291;28;20077;-84
2024/01/01 11:19:42;;;;;;;9.00;2.33;;;7.80;99.90;;;;;;5012944;28;20057;-84
2024/01/01 11:22:20;;;;;;;8.40;2.05;;;8.70;99.90;;;;;;4997014;28;20068;-84
2024/01/01 11:24:47;;;;;;;10.90;2.38;;;7.40;99.90;;;;;;5030436;28;20216;-84
2024/01/01 11:27:47;;;;;;;9.43;2.40;;;7.40;99.90;;;;;;5010419;28;20033;-84
2024/01/01 11:30:14;;;;;;;8.50;2.00;;;7.50;99.90;;;;;;5013543;28;20046;-84
2024/01/01 11:32:40;;;;;;;8.82;2.58;;;7.50;99.90;;;;;;5011285;28;20041;-84
2024/01/01 11:35:12;;;;;;;11.90;2.30;;;8.20;99.90;;;;;;4993493;28;20045;-84
2024/01/01 11:37:42;;;;;;;8.20;1.98;;;7.30;99.90;;;;;;5013507;28;20033;-84
2024/01/01 11:40:09;;;;;;;10.07;2.47;;;7.30;99.90;;;;;;5013483;28;20059;-84
2024/01/01 11:42:36;;;;;;;8.27;2.05;;;7.50;99.90;;;;;;4996392;28;20045;-84
2024/01/01 11:45:06;;;;;;;5.97;1.80;;;8.30;99.90;;;;;;4993770;28;20064;-84
2024/01/01 11:47:32;;;;;;;8.85;2.40;;;7.60;99.90;;;;;;5004887;28;20117;-84
2024/01/01 11:49:58;;;;;;;10.40;2.10;;;7.40;99.90;;;;;;4655238;28;9999953;-84
2024/01/01 11:52:24;;;;;;;9.35;2.10;;;7.40;99.90;;;;;;5007066;28;20140;-83
2024/01/01 11:54:49;;;;;;;9.80;2.15;;;7.50;99.90;;;;;;5025468;28;20067;-84
2024/01/01 11:57:15;;;;;;;9.65;2.00;;;7.50;99.90;;;;;;4977821;28;20037;-83
2024/01/01 11:59:41;;;;;;;7.95;1.90;;;7.50;99.90;;;;;;4991346;28;20030;-83
2024/01/01 12:02:08;;;;;;;9.38;2.35;;;7.20;99.90;;;;;;5005222;28;20041;-83
2024/01/01 12:04:34;;;;;;;9.30;2.00;;;7.30;99.90;;;;;;5024692;28;20033;-84
2024/01/01 12:07:00;;;;;;;8.32;2.25;;;7.10;99.90;;;;;;5010300;28;20147;-84
2024/01/01 12:09:26;;;;;;;8.00;1.90;;;7.00;99.90;;;;;;4983822;28;20029;-83
2024/01/01 12:12:12;;;;;;;7.78;1.92;;;7.20;99.90;;;;;;4987137;28;20448;-83
2024/01/01 12:14:39;;;;;;;10.52;2.10;;;7.10;99.90;;;;;;5021799;28;20465;-83
2024/01/01 12:17:08;;;;;;;12.20;2.70;;;8.60;99.90;;;;;;4973190;28;20076;-83
2024/01/01 12:19:33;;;;;;;13.63;2.70;;;7.40;99.90;;;;;;5002778;28;20503;-83
2024/01/01 12:21:59;;;;;;;11.85;2.80;;;7.60;99.90;;;;;;4987369;28;20188;-84
2024/01/01 12:24:26;;;;;;;11.02;2.20;;;8.80;99.90;;;;;;5006856;28;20076;-84
2024/01/01 12:27:01;;;;;;;10.15;2.40;;;8.00;99.90;;;;;;5002667;28;20037;-83
2024/01/01 12:29:28;;;;;;;10.68;2.22;;;7.80;99.90;;;;;;5007299;28;20616;-84
2024/01/01 12:31:53;;;;;;;10.02;2.47;;;8.00;99.90;;;;;;5006430;28;20046;-84
2024/01/01 12:34:19;;;;;;;11.02;2.42;;;7.90;99.90;;;;;;4994843;28;20042;-84
2024/01/01 12:36:47;;;;;;;10.27;2.45;;;8.00;99.90;;;;;;5017116;28;20125;-84
2024/01/01 12:39:17;;;;;;;7.10;2.05;;;8.30;99.90;;;;;;5019052;28;20124;-83
2024/01/01 12:41:43;;;;;;;9.00;2.13;;;8.20;99.90;;;;;;5027277;28;20057;-83
2024/01/01 12:44:09;;;;;;;9.18;2.08;;;8.90;99.90;;;;;;5009741;28;20041;-83
2024/01/01 12:46:35;;;;;;;12.25;2.60;;;8.20;99.90;;;;;;5025307;28;20483;-84
2024/01/01 12:49:01;;;;;;;9.68;2.05;;;8.00;99.90;;;;;;5007946;28;20045;-84
2024/01/01 12:51:28;;;;;;;8.60;2.50;;;8.10;99.90;;;;;;4988794;28;20041;-83